createdAt,value
2019-05-03T00:02:27.574Z,16.39
2019-05-03T00:05:17.902Z,16.51
2019-05-03T00:07:52.610Z,16.47
2019-05-03T00:10:23.440Z,16.26
2019-05-03T00:12:54.177Z,16.45
2019-05-03T00:15:36.536Z,16.34
2019-05-03T00:18:08.352Z,16.36
2019-05-03T00:20:41.963Z,16.39
2019-05-03T00:23:12.609Z,16.14
2019-05-03T00:25:43.592Z,16.23
2019-05-03T00:28:14.571Z,16.25
2019-05-03T00:30:47.680Z,16.20
2019-05-03T00:33:19.155Z,16.22
2019-05-03T00:36:09.054Z,16.19
2019-05-03T00:38:41.976Z,16.35
2019-05-03T00:41:14.460Z,16.39
2019-05-03T00:43:45.886Z,16.14
2019-05-03T00:46:16.508Z,16.14
2019-05-03T00:48:48.076Z,16.02
2019-05-03T00:51:22.467Z,16.22
2019-05-03T00:53:54.321Z,16.19
2019-05-03T00:56:26.247Z,16.28
2019-05-03T00:58:58.864Z,16.18
2019-05-03T01:01:32.171Z,16.27
2019-05-03T01:04:02.487Z,16.30
2019-05-03T01:06:32.674Z,16.41
2019-05-03T01:09:05.770Z,16.40
2019-05-03T01:11:37.251Z,16.23
2019-05-03T01:14:08.726Z,16.31
2019-05-03T01:16:40.226Z,16.33
2019-05-03T01:19:13.296Z,16.25
2019-05-03T01:21:45.646Z,16.29
2019-05-03T01:24:18.622Z,16.35
2019-05-03T01:26:52.458Z,16.43
2019-05-03T01:29:22.882Z,16.48
2019-05-03T01:31:53.898Z,16.38
2019-05-03T01:34:25.272Z,16.45
2019-05-03T01:36:57.258Z,16.31
2019-05-03T01:39:28.377Z,16.36
2019-05-03T01:42:00.221Z,16.40
2019-05-03T01:44:32.611Z,16.37
2019-05-03T01:47:05.659Z,16.42
2019-05-03T01:49:45.180Z,16.43
2019-05-03T01:52:26.285Z,16.48
2019-05-03T01:54:58.957Z,16.47
2019-05-03T01:57:29.227Z,16.54
2019-05-03T02:00:02.679Z,16.35
2019-05-03T02:02:42.004Z,16.35
2019-05-03T02:05:42.898Z,16.26
2019-05-03T02:08:14.239Z,16.46
2019-05-03T02:10:46.026Z,16.49
2019-05-03T02:13:16.750Z,16.56
2019-05-03T02:15:48.833Z,16.48
2019-05-03T02:18:19.381Z,16.45
2019-05-03T02:20:49.576Z,16.51
2019-05-03T02:23:23.644Z,16.50
2019-05-03T02:25:59.274Z,16.40
2019-05-03T02:28:32.682Z,16.53
2019-05-03T02:31:04.495Z,16.53
2019-05-03T02:33:37.015Z,16.30
2019-05-03T02:36:08.845Z,16.45
2019-05-03T02:38:42.683Z,16.54
2019-05-03T02:41:13.531Z,16.52
2019-05-03T02:43:51.479Z,16.54
2019-05-03T02:46:36.086Z,16.53
2019-05-03T02:49:19.096Z,16.38
2019-05-03T02:51:49.580Z,16.45
2019-05-03T02:54:19.869Z,16.04
2019-05-03T02:56:50.546Z,16.30
2019-05-03T02:59:20.757Z,16.38
2019-05-03T03:01:52.003Z,16.43
2019-05-03T03:04:25.988Z,16.43
2019-05-03T03:06:59.430Z,16.12
2019-05-03T03:09:30.030Z,16.36
2019-05-03T03:12:06.078Z,16.40
2019-05-03T03:14:37.566Z,16.48
2019-05-03T03:17:12.358Z,16.38
2019-05-03T03:19:46.744Z,15.76
2019-05-03T03:22:20.912Z,16.11
2019-05-03T03:24:56.077Z,16.28
2019-05-03T03:27:29.096Z,16.22
2019-05-03T03:30:28.954Z,16.28
2019-05-03T03:33:01.230Z,16.32
2019-05-03T03:35:38.140Z,16.23
2019-05-03T03:38:08.916Z,16.09
2019-05-03T03:40:45.336Z,16.17
2019-05-03T03:43:17.906Z,16.12
2019-05-03T03:45:51.225Z,15.96
2019-05-03T03:48:26.644Z,15.97
2019-05-03T03:50:59.316Z,15.91
2019-05-03T03:53:35.424Z,15.85
2019-05-03T03:56:05.744Z,15.76
2019-05-03T03:58:37.615Z,15.77
2019-05-03T04:01:07.827Z,15.58
2019-05-03T04:03:40.797Z,15.55
2019-05-03T04:06:15.263Z,15.71
2019-05-03T04:08:45.689Z,15.55
2019-05-03T04:11:16.493Z,15.63
2019-05-03T04:13:47.693Z,15.47
2019-05-03T04:16:40.379Z,15.59
2019-05-03T04:19:19.440Z,15.52
2019-05-03T04:21:51.191Z,15.59
2019-05-03T04:24:25.679Z,15.29
2019-05-03T04:27:18.682Z,15.48
2019-05-03T04:29:39.763Z,15.62
2019-05-03T04:32:11.333Z,15.66
2019-05-03T04:34:45.656Z,15.67
2019-05-03T04:37:16.565Z,15.61
2019-05-03T04:39:47.373Z,15.62
2019-05-03T04:42:18.703Z,15.63
2019-05-03T04:44:48.927Z,15.66
2019-05-03T04:47:19.692Z,15.67
2019-05-03T04:49:52.158Z,15.70
2019-05-03T04:52:25.534Z,15.50
2019-05-03T04:54:57.291Z,15.26
2019-05-03T04:57:39.715Z,15.37
2019-05-03T05:00:00.691Z,15.53
2019-05-03T05:02:35.408Z,15.62
2019-05-03T05:05:09.755Z,15.49
2019-05-03T05:07:40.259Z,15.50
2019-05-03T05:10:15.271Z,15.21
2019-05-03T05:12:46.962Z,15.30
2019-05-03T05:15:19.181Z,15.52
2019-05-03T05:18:16.018Z,15.36
2019-05-03T05:20:55.852Z,15.41
2019-05-03T05:23:27.037Z,15.66
2019-05-03T05:26:05.566Z,15.62
2019-05-03T05:28:44.944Z,15.71
2019-05-03T05:31:15.424Z,15.79
2019-05-03T05:33:46.302Z,15.75
2019-05-03T05:36:17.759Z,15.37
2019-05-03T05:38:48.556Z,15.66
2019-05-03T05:41:19.271Z,15.63
2019-05-03T05:43:50.819Z,15.57
2019-05-03T05:46:24.938Z,15.75
2019-05-03T05:48:55.679Z,15.83
2019-05-03T05:51:27.495Z,15.84
2019-05-03T05:54:01.793Z,15.95
2019-05-03T05:56:47.209Z,15.77
2019-05-03T05:59:25.735Z,16.09
2019-05-03T06:02:04.861Z,15.90
2019-05-03T06:04:35.762Z,16.11
2019-05-03T06:07:28.500Z,16.11
2019-05-03T06:10:09.592Z,16.09
2019-05-03T06:12:46.254Z,16.12
2019-05-03T06:15:36.568Z,15.93
2019-05-03T06:18:14.607Z,16.05
2019-05-03T06:21:04.640Z,16.05
2019-05-03T06:23:56.407Z,16.03
2019-05-03T06:26:56.305Z,16.15
2019-05-03T06:29:28.684Z,16.24
2019-05-03T06:32:25.372Z,16.21
2019-05-03T06:34:56.730Z,16.26
2019-05-03T06:37:31.002Z,16.45
2019-05-03T06:40:06.163Z,16.75
2019-05-03T06:42:51.233Z,16.73
2019-05-03T06:45:14.759Z,16.73
2019-05-03T06:47:49.860Z,16.70
2019-05-03T06:50:27.233Z,16.98
2019-05-03T06:52:54.786Z,17.01
2019-05-03T06:55:28.097Z,17.08
2019-05-03T06:58:05.157Z,17.13
2019-05-03T07:00:55.360Z,17.03
2019-05-03T07:03:58.510Z,17.09
2019-05-03T07:06:40.322Z,17.16
2019-05-03T07:09:30.371Z,17.11
2019-05-03T07:12:01.996Z,16.83
2019-05-03T07:14:32.477Z,17.05
2019-05-03T07:17:24.864Z,17.03
2019-05-03T07:19:55.614Z,17.19
2019-05-03T07:22:28.324Z,17.06
2019-05-03T07:25:01.052Z,17.05
2019-05-03T07:27:34.973Z,17.05
2019-05-03T07:30:09.822Z,17.09
2019-05-03T07:32:44.840Z,17.22
2019-05-03T07:35:16.548Z,17.12
2019-05-03T07:37:48.832Z,17.24
2019-05-03T07:40:21.453Z,17.08
2019-05-03T07:42:52.746Z,17.27
2019-05-03T07:45:27.502Z,17.48
2019-05-03T07:47:59.138Z,17.66
2019-05-03T07:50:33.260Z,17.93
2019-05-03T07:53:05.551Z,18.09
2019-05-03T07:56:02.512Z,18.09
2019-05-03T07:58:35.128Z,18.18
2019-05-03T08:01:10.838Z,18.22
2019-05-03T08:03:42.191Z,18.26
2019-05-03T08:06:14.780Z,18.35
2019-05-03T08:08:45.458Z,18.45
2019-05-03T08:11:16.229Z,18.31
2019-05-03T08:13:47.716Z,18.47
2019-05-03T08:16:21.696Z,18.63
2019-05-03T08:18:52.552Z,18.68
2019-05-03T08:21:25.577Z,18.62
2019-05-03T08:23:56.194Z,18.77
2019-05-03T08:26:28.345Z,17.98
2019-05-03T08:29:14.823Z,18.47
2019-05-03T08:31:46.781Z,18.53
2019-05-03T08:34:30.332Z,18.74
2019-05-03T08:37:06.781Z,18.91
2019-05-03T08:39:44.881Z,18.49
2019-05-03T08:42:22.848Z,18.81
2019-05-03T08:44:58.188Z,19.01
2019-05-03T08:47:28.420Z,19.07
2019-05-03T08:49:59.602Z,18.72
2019-05-03T08:52:34.819Z,18.90
2019-05-03T08:55:10.350Z,19.05
2019-05-03T08:57:45.863Z,18.79
2019-05-03T09:00:18.260Z,19.11
2019-05-03T09:02:49.730Z,19.33
2019-05-03T09:05:25.041Z,19.12
2019-05-03T09:07:57.071Z,19.31
2019-05-03T09:10:45.753Z,19.36
2019-05-03T09:13:21.305Z,19.37
2019-05-03T09:15:55.198Z,19.01
2019-05-03T09:18:28.802Z,19.26
2019-05-03T09:20:58.968Z,19.34
2019-05-03T09:23:39.932Z,19.45
2019-05-03T09:26:11.064Z,19.31
2019-05-03T09:28:42.928Z,19.46
2019-05-03T09:31:17.787Z,19.28
2019-05-03T09:33:55.019Z,19.67
2019-05-03T09:36:39.091Z,19.35
2019-05-03T09:39:11.584Z,19.43
2019-05-03T09:41:44.889Z,19.52
2019-05-03T09:44:17.053Z,19.76
2019-05-03T09:46:49.036Z,19.96
2019-05-03T09:49:20.739Z,20.02
2019-05-03T09:51:54.906Z,20.25
2019-05-03T09:54:36.268Z,20.17
2019-05-03T09:57:06.874Z,20.12
2019-05-03T09:59:38.075Z,20.29
2019-05-03T10:02:15.156Z,20.15
2019-05-03T10:05:06.440Z,20.08
2019-05-03T10:07:56.335Z,19.91
2019-05-03T10:10:51.021Z,20.21
2019-05-03T10:13:27.206Z,20.12
2019-05-03T10:16:05.821Z,19.99
2019-05-03T10:18:55.339Z,20.36
2019-05-03T10:21:29.045Z,20.07
2019-05-03T10:24:06.780Z,20.43
2019-05-03T10:26:41.601Z,20.30
2019-05-03T10:29:11.956Z,20.17
2019-05-03T10:31:56.485Z,19.77
2019-05-03T10:34:35.698Z,20.41
2019-05-03T10:37:09.257Z,20.21
2019-05-03T10:39:45.426Z,19.93
2019-05-03T10:42:18.394Z,20.56
2019-05-03T10:44:49.022Z,20.88
2019-05-03T10:47:19.689Z,21.19
2019-05-03T10:49:51.442Z,21.19
2019-05-03T10:52:28.068Z,20.73
2019-05-03T10:54:59.652Z,20.69
2019-05-03T10:57:32.982Z,20.63
2019-05-03T11:00:05.074Z,20.59
2019-05-03T11:02:51.777Z,20.81
2019-05-03T11:05:24.325Z,20.49
2019-05-03T11:07:58.701Z,20.49
2019-05-03T11:10:30.141Z,20.94
2019-05-03T11:13:02.729Z,20.94
2019-05-03T11:15:35.075Z,21.12
2019-05-03T11:18:06.889Z,21.23
2019-05-03T11:20:39.780Z,21.23
2019-05-03T11:23:10.330Z,21.11
2019-05-03T11:25:45.237Z,21.24
2019-05-03T11:28:26.174Z,21.05
2019-05-03T11:31:02.396Z,21.05
2019-05-03T11:33:39.377Z,21.26
2019-05-03T11:36:20.022Z,21.25
2019-05-03T11:38:52.047Z,20.98
2019-05-03T11:41:32.017Z,21.65
2019-05-03T11:44:22.317Z,21.93
2019-05-03T11:46:54.961Z,22.34
2019-05-03T11:49:28.249Z,22.62
2019-05-03T11:51:59.815Z,22.48
2019-05-03T11:54:32.342Z,22.79
2019-05-03T11:57:10.697Z,23.16
2019-05-03T11:59:45.238Z,23.20
2019-05-03T12:02:35.133Z,23.15
2019-05-03T12:05:11.680Z,23.51
2019-05-03T12:07:45.874Z,23.24
2019-05-03T12:10:36.885Z,23.59
2019-05-03T12:13:15.843Z,23.77
2019-05-03T12:15:52.373Z,22.96
2019-05-03T12:18:25.111Z,22.84
2019-05-03T12:20:59.388Z,22.96
2019-05-03T12:23:32.791Z,22.46
2019-05-03T12:26:10.895Z,21.97
2019-05-03T12:28:41.622Z,22.31
2019-05-03T12:31:29.559Z,22.86
2019-05-03T12:33:55.498Z,23.19
2019-05-03T12:36:27.163Z,23.49
2019-05-03T12:38:58.279Z,23.76
2019-05-03T12:41:30.483Z,24.02
2019-05-03T12:44:04.690Z,23.99
2019-05-03T12:46:35.459Z,24.49
2019-05-03T12:49:07.252Z,25.16
2019-05-03T12:51:40.903Z,25.62
2019-05-03T12:54:12.415Z,25.60
2019-05-03T12:56:50.864Z,25.73
2019-05-03T12:59:42.120Z,25.27
2019-05-03T13:02:19.247Z,26.10
2019-05-03T13:04:56.547Z,25.91
2019-05-03T13:07:36.678Z,25.59
2019-05-03T13:10:09.726Z,24.52
2019-05-03T13:12:52.497Z,24.31
2019-05-03T13:15:18.271Z,24.33
2019-05-03T13:17:50.779Z,24.73
2019-05-03T13:20:21.331Z,24.89
2019-05-03T13:22:52.902Z,25.05
2019-05-03T13:25:25.925Z,24.24
2019-05-03T13:27:58.847Z,24.66
2019-05-03T13:30:29.401Z,24.58
2019-05-03T13:33:00.842Z,24.31
2019-05-03T13:35:32.713Z,24.08
2019-05-03T13:38:04.159Z,23.79
2019-05-03T13:40:36.030Z,22.67
2019-05-03T13:43:08.301Z,23.27
2019-05-03T13:45:40.096Z,23.19
2019-05-03T13:48:12.357Z,23.03
2019-05-03T13:50:44.609Z,22.60
2019-05-03T13:53:16.241Z,22.40
2019-05-03T13:55:49.600Z,22.49
2019-05-03T13:58:21.478Z,22.27
2019-05-03T14:00:54.721Z,22.24
2019-05-03T14:03:24.777Z,22.35
2019-05-03T14:05:57.865Z,21.85
2019-05-03T14:08:30.795Z,22.11
2019-05-03T14:11:01.383Z,21.97
2019-05-03T14:13:31.566Z,21.93
2019-05-03T14:16:05.488Z,21.89
2019-05-03T14:18:36.402Z,21.59
2019-05-03T14:21:34.468Z,21.44
2019-05-03T14:24:15.811Z,21.45
2019-05-03T14:26:46.900Z,21.61
2019-05-03T14:29:19.285Z,21.61
2019-05-03T14:31:54.548Z,21.72
2019-05-03T14:34:26.791Z,21.61
2019-05-03T14:36:57.683Z,21.49
2019-05-03T14:39:29.266Z,21.47
2019-05-03T14:42:00.792Z,21.64
2019-05-03T14:44:32.547Z,21.64
2019-05-03T14:47:05.835Z,21.60
2019-05-03T14:49:38.292Z,20.78
2019-05-03T14:52:08.585Z,20.48
2019-05-03T14:54:40.927Z,20.24
2019-05-03T14:57:32.042Z,20.02
2019-05-03T15:00:22.118Z,20.17
2019-05-03T15:03:02.040Z,20.15
2019-05-03T15:05:36.327Z,20.32
2019-05-03T15:08:07.988Z,20.28
2019-05-03T15:10:39.380Z,20.21
2019-05-03T15:13:11.312Z,20.23
2019-05-03T15:15:45.229Z,19.95
2019-05-03T15:18:20.461Z,20.11
2019-05-03T15:20:55.002Z,20.15
2019-05-03T15:23:27.089Z,20.09
2019-05-03T15:25:59.522Z,19.97
2019-05-03T15:28:31.205Z,20.10
2019-05-03T15:31:04.551Z,19.71
2019-05-03T15:33:37.734Z,19.75
2019-05-03T15:36:12.934Z,19.84
2019-05-03T15:38:45.018Z,19.57
2019-05-03T15:41:15.898Z,19.39
2019-05-03T15:44:20.974Z,19.43
2019-05-03T15:47:16.063Z,19.27
2019-05-03T15:49:47.651Z,19.07
2019-05-03T15:52:19.108Z,19.05
2019-05-03T15:54:50.072Z,19.00
2019-05-03T15:57:20.976Z,18.98
2019-05-03T15:59:52.251Z,18.91
2019-05-03T16:02:24.653Z,18.96
2019-05-03T16:04:58.662Z,18.91
2019-05-03T16:10:38.502Z,18.67
2019-05-03T16:13:10.797Z,18.71
2019-05-03T16:15:41.831Z,18.35
2019-05-03T16:18:14.869Z,18.37
2019-05-03T16:20:48.271Z,18.42
2019-05-03T16:23:18.850Z,18.43
2019-05-03T16:25:50.289Z,18.10
2019-05-03T16:28:31.402Z,18.29
2019-05-03T16:31:12.440Z,18.17
2019-05-03T16:33:46.969Z,18.32
2019-05-03T16:36:24.149Z,18.14
2019-05-03T16:38:57.779Z,17.61
2019-05-03T16:41:31.795Z,18.17
2019-05-03T16:44:05.166Z,17.74
2019-05-03T16:46:35.893Z,17.92
2019-05-03T16:49:06.699Z,17.86
2019-05-03T16:51:40.926Z,17.68
2019-05-03T16:54:11.449Z,17.77
2019-05-03T16:56:44.540Z,17.53
2019-05-03T16:59:17.463Z,17.39
2019-05-03T17:01:48.789Z,17.49
2019-05-03T17:04:49.390Z,17.77
2019-05-03T17:07:45.025Z,17.95
2019-05-03T17:10:27.135Z,17.68
2019-05-03T17:13:02.287Z,18.03
2019-05-03T17:15:35.300Z,18.00
2019-05-03T17:18:06.407Z,17.95
2019-05-03T17:20:38.758Z,17.90
2019-05-03T17:23:11.092Z,17.93
2019-05-03T17:25:44.580Z,18.02
2019-05-03T17:28:16.519Z,17.87
2019-05-03T17:30:51.314Z,17.87
2019-05-03T17:33:22.431Z,17.83
2019-05-03T17:35:56.072Z,17.68
2019-05-03T17:38:30.367Z,17.83
2019-05-03T17:41:29.104Z,17.85
2019-05-03T17:44:17.169Z,17.36
2019-05-03T17:46:48.087Z,17.38
2019-05-03T17:49:30.907Z,17.33
2019-05-03T17:52:20.182Z,17.37
2019-05-03T17:55:05.042Z,17.42
2019-05-03T17:57:55.119Z,17.47
2019-05-03T18:01:01.945Z,17.13
2019-05-03T18:03:37.684Z,17.48
2019-05-03T18:06:39.061Z,17.41
2019-05-03T18:09:24.525Z,17.41
2019-05-03T18:11:57.660Z,17.31
2019-05-03T18:14:34.363Z,17.32
2019-05-03T18:17:08.717Z,17.41
2019-05-03T18:19:41.334Z,17.14
2019-05-03T18:22:16.614Z,17.25
2019-05-03T18:24:48.166Z,17.34
2019-05-03T18:27:25.050Z,17.24
2019-05-03T18:29:57.261Z,17.16
2019-05-03T18:32:40.691Z,17.36
2019-05-03T18:35:19.598Z,17.26
2019-05-03T18:37:59.160Z,16.77
2019-05-03T18:40:35.300Z,16.60
2019-05-03T18:43:14.984Z,16.63
2019-05-03T18:46:17.856Z,16.73
2019-05-03T18:48:50.021Z,16.60
2019-05-03T18:51:25.235Z,16.51
2019-05-03T18:53:56.514Z,16.29
2019-05-03T18:56:32.399Z,16.55
2019-05-03T18:59:10.297Z,16.49
2019-05-03T19:01:46.787Z,16.72
2019-05-03T19:04:34.323Z,16.33
2019-05-03T19:07:05.272Z,16.48
2019-05-03T19:10:01.144Z,16.69
2019-05-03T19:12:41.088Z,16.47
2019-05-03T19:15:17.931Z,16.49
2019-05-03T19:18:15.380Z,16.56
2019-05-03T19:20:49.918Z,16.36
2019-05-03T19:23:22.029Z,16.39
2019-05-03T19:26:00.526Z,16.21
2019-05-03T19:28:32.165Z,16.25
2019-05-03T19:31:05.447Z,15.50
2019-05-03T19:33:37.311Z,16.14
2019-05-03T19:36:10.719Z,16.24
2019-05-03T19:38:42.577Z,16.31
2019-05-03T19:41:16.305Z,16.23
2019-05-03T19:43:50.191Z,16.02
2019-05-03T19:46:24.804Z,15.95
2019-05-03T19:48:56.210Z,16.21
2019-05-03T19:51:29.380Z,16.24
2019-05-03T19:54:06.079Z,16.28
2019-05-03T19:56:41.505Z,16.22
2019-05-03T19:59:18.576Z,15.99
2019-05-03T20:02:04.575Z,16.14
2019-05-03T20:05:09.910Z,15.69
2019-05-03T20:08:05.158Z,15.99
2019-05-03T20:10:38.804Z,16.09
2019-05-03T20:13:10.755Z,15.90
2019-05-03T20:15:45.071Z,15.56
2019-05-03T20:18:28.701Z,15.66
2019-05-03T20:21:00.522Z,15.66
2019-05-03T20:23:33.507Z,15.67
2019-05-03T20:26:08.803Z,15.87
2019-05-03T20:28:39.788Z,15.72
2019-05-03T20:31:12.258Z,15.93
2019-05-03T20:33:45.734Z,15.46
2019-05-03T20:36:19.697Z,15.80
2019-05-03T20:38:55.908Z,15.92
2019-05-03T20:41:28.917Z,15.84
2019-05-03T20:47:39.890Z,15.55
2019-05-03T20:50:15.643Z,15.71
2019-05-03T20:52:49.013Z,15.43
2019-05-03T20:55:22.305Z,15.38
2019-05-03T20:57:57.694Z,15.32
2019-05-03T21:00:28.537Z,15.48
2019-05-03T21:02:59.800Z,15.53
2019-05-03T21:05:34.748Z,15.75
2019-05-03T21:08:06.983Z,15.45
2019-05-03T21:10:37.743Z,14.77
2019-05-03T21:13:09.809Z,15.67
2019-05-03T21:15:58.740Z,15.39
2019-05-03T21:18:55.514Z,15.79
2019-05-03T21:21:44.401Z,15.87
2019-05-03T21:24:25.544Z,15.81
2019-05-03T21:26:55.941Z,15.91
2019-05-03T21:29:34.622Z,15.40
2019-05-03T21:32:05.525Z,15.79
2019-05-03T21:34:45.191Z,15.25
2019-05-03T21:37:24.343Z,15.02
2019-05-03T21:39:54.912Z,15.58
2019-05-03T21:42:25.740Z,15.80
2019-05-03T21:45:00.403Z,15.26
2019-05-03T21:47:44.196Z,15.26
2019-05-03T21:50:17.660Z,15.09
2019-05-03T21:52:57.471Z,15.34
2019-05-03T21:55:30.539Z,15.09
2019-05-03T21:58:04.654Z,14.95
2019-05-03T22:00:51.840Z,15.29
2019-05-03T22:03:25.729Z,14.92
2019-05-03T22:05:58.082Z,15.62
2019-05-03T22:08:32.088Z,15.55
2019-05-03T22:11:05.356Z,15.60
2019-05-03T22:13:37.912Z,15.80
2019-05-03T22:16:28.079Z,15.40
2019-05-03T22:19:01.065Z,15.64
2019-05-03T22:21:39.045Z,15.60
2019-05-03T22:24:32.222Z,15.15
2019-05-03T22:27:09.788Z,14.76
2019-05-03T22:29:44.644Z,15.20
2019-05-03T22:32:18.409Z,14.96
2019-05-03T22:34:51.081Z,15.44
2019-05-03T22:37:24.845Z,15.65
2019-05-03T22:39:59.685Z,15.60
2019-05-03T22:42:30.258Z,15.18
2019-05-03T22:45:01.759Z,15.49
2019-05-03T22:47:36.746Z,15.65
2019-05-03T22:50:10.019Z,15.31
2019-05-03T22:52:45.689Z,15.22
2019-05-03T22:55:24.718Z,15.62
2019-05-03T22:58:05.185Z,15.74
2019-05-03T23:00:36.277Z,15.87
2019-05-03T23:03:09.444Z,15.77
2019-05-03T23:05:40.453Z,15.88
2019-05-03T23:08:29.346Z,15.92
2019-05-03T23:11:02.705Z,15.93
2019-05-03T23:13:33.448Z,16.00
2019-05-03T23:16:07.042Z,15.94
2019-05-03T23:18:37.630Z,15.97
2019-05-03T23:21:15.221Z,15.93
2019-05-03T23:23:51.725Z,15.98
2019-05-03T23:26:25.396Z,15.83
2019-05-03T23:28:59.382Z,15.95
2019-05-03T23:31:30.603Z,15.82
2019-05-03T23:34:01.057Z,15.88
2019-05-03T23:36:35.596Z,15.78
2019-05-03T23:39:11.761Z,15.72
2019-05-03T23:41:47.952Z,15.68
2019-05-03T23:44:20.750Z,15.62
2019-05-03T23:47:21.388Z,15.52
2019-05-03T23:49:55.371Z,15.63
2019-05-03T23:52:35.274Z,15.39
2019-05-03T23:55:15.830Z,15.41
2019-05-03T23:57:48.741Z,15.34
